Time;durP1;ratioP1;P1;durP2;ratioP2;P2;SDS_P1;SDS_P2;PMS_P1;PMS_P2;Temp;Humidity;BMP_temperature;BMP_pressure;BME280_temperature;BME280_humidity;BME280_pressure;Samples;Min_cycle;Max_cycle;Signal;HPM_P1;HPM_P2
2022/05/15 00:01:18;;;;;;;5.65;3.20;;;;;;;20.76;51.47;99546.16;3133915;28;20589;-75
2022/05/15 00:02:50;;;;;;;6.50;3.75;;;;;;;20.56;51.36;99510.94;3133462;28;20063;-75
2022/05/15 00:04:22;;;;;;;5.38;3.40;;;;;;;21.27;51.41;99629.72;3133865;28;20107;-76
2022/05/15 00:05:57;;;;;;;5.35;3.55;;;;;;;20.85;51.56;99553.28;3133783;28;20041;-76
2022/05/15 00:07:30;;;;;;;7.80;3.60;;;;;;;20.73;51.30;99543.78;3134070;28;20053;-76
2022/05/15 00:09:02;;;;;;;5.95;3.72;;;;;;;20.71;51.33;99537.00;3133961;28;20572;-75
2022/05/15 00:10:34;;;;;;;4.38;3.60;;;;;;;21.27;51.49;99623.59;3133005;28;20053;-75
2022/05/15 00:12:07;;;;;;;7.80;3.85;;;;;;;20.62;51.69;99513.03;3133787;28;20064;-75
2022/05/15 00:13:41;;;;;;;6.57;3.75;;;;;;;21.22;51.55;99607.28;3151449;28;20066;-76
2022/05/15 00:15:15;;;;;;;5.28;3.72;;;;;;;21.23;51.44;99614.22;3158473;28;20059;-75
2022/05/15 00:16:47;;;;;;;6.57;3.80;;;;;;;20.58;51.69;99511.63;3158405;28;20062;-76
2022/05/15 00:18:21;;;;;;;7.40;4.13;;;;;;;20.93;51.25;99570.25;3158364;28;20054;-76
2022/05/15 00:19:53;;;;;;;6.75;3.72;;;;;;;21.28;51.30;99627.88;3158279;28;20052;-77
2022/05/15 00:21:25;;;;;;;8.07;3.80;;;;;;;20.97;51.68;99567.19;3158637;28;20087;-76
2022/05/15 00:22:57;;;;;;;7.47;2.97;;;;;;;21.01;51.40;99587.09;3158334;28;20059;-77
2022/05/15 00:24:29;;;;;;;5.22;3.80;;;;;;;20.83;51.21;99555.22;3154384;28;20538;-75
2022/05/15 00:26:01;;;;;;;5.25;3.67;;;;;;;20.99;51.39;99577.63;3158773;28;20113;-77
2022/05/15 00:27:33;;;;;;;7.57;3.83;;;;;;;21.08;51.31;99598.78;3157859;28;20260;-78
2022/05/15 00:29:05;;;;;;;6.13;3.45;;;;;;;21.24;51.25;99629.16;3158348;28;20086;-77
2022/05/15 00:30:38;;;;;;;6.47;3.53;;;;;;;20.94;51.18;99577.19;3156730;28;20080;-78
2022/05/15 00:32:10;;;;;;;7.27;3.43;;;;;;;20.74;51.40;99560.53;3158273;28;20040;-78
2022/05/15 00:33:44;;;;;;;10.60;3.55;;;;;;;20.75;51.37;99552.44;3158315;28;20861;-78
2022/05/15 00:35:16;;;;;;;8.32;3.88;;;;;;;21.02;51.20;99598.50;3158228;28;20055;-78
2022/05/15 00:36:52;;;;;;;5.47;3.35;;;;;;;20.68;51.13;99543.41;3151957;28;20056;-78
2022/05/15 00:38:24;;;;;;;4.85;3.50;;;;;;;21.02;51.23;99604.63;3158461;28;20058;-78
2022/05/15 00:39:57;;;;;;;5.72;3.78;;;;;;;21.15;51.04;99628.19;3158015;28;20055;-78
2022/05/15 00:41:32;;;;;;;5.25;3.72;;;;;;;21.14;50.91;99631.81;3158337;28;20599;-78
2022/05/15 00:43:04;;;;;;;8.38;3.75;;;;;;;20.58;51.04;99538.09;3158149;28;20080;-76
2022/05/15 00:44:36;;;;;;;6.68;3.60;;;;;;;20.32;51.09;99492.84;3158398;28;20142;-77
2022/05/15 00:46:13;;;;;;;4.47;3.65;;;;;;;20.49;51.06;99523.03;3157988;28;20076;-76
2022/05/15 00:47:46;;;;;;;4.70;3.45;;;;;;;21.15;51.06;99630.84;3157973;28;20056;-76
2022/05/15 00:49:18;;;;;;;6.10;4.00;;;;;;;21.13;51.09;99622.19;3158361;28;20044;-76
2022/05/15 00:50:51;;;;;;;5.18;3.40;;;;;;;20.93;51.09;99594.91;3158280;28;20135;-76
2022/05/15 00:52:28;;;;;;;4.18;3.40;;;;;;;21.01;51.25;99610.91;3158021;28;20535;-76
2022/05/15 00:54:06;;;;;;;4.30;3.15;;;;;;;20.97;51.12;99608.69;3157489;28;20112;-76
2022/05/15 00:55:42;;;;;;;6.38;3.50;;;;;;;20.29;51.05;99500.19;3151851;28;20071;-75
2022/05/15 01:02:32;;;;;;;5.97;3.38;;;;;;;20.57;51.32;99565.53;3085558;28;20058;-75
2022/05/15 01:04:05;;;;;;;7.60;3.17;;;;;;;20.64;51.01;99590.44;3124716;28;20045;-77
2022/05/15 01:05:40;;;;;;;5.00;3.00;;;;;;;20.52;51.00;99557.16;3125104;28;20148;-77
2022/05/15 01:07:12;;;;;;;4.90;2.95;;;;;;;20.88;51.36;99605.91;3119416;28;20045;-76
2022/05/15 01:08:50;;;;;;;3.78;2.85;;;;;;;20.26;51.00;99508.41;3151743;28;20084;-78
2022/05/15 01:10:42;;;;;;;;;;;;;;;;;;;;;
2022/05/15 01:12:15;;;;;;;5.28;3.10;;;;;;;20.90;51.08;99621.66;3152815;28;20090;-77
2022/05/15 01:18:02;;;;;;;4.90;3.35;;;;;;;20.43;50.96;99556.16;3150726;28;20481;-77
2022/05/15 01:32:27;;;;;;;4.80;3.10;;;;;;;20.25;50.10;99539.28;3181788;27;20395;-77
2022/05/15 01:33:59;;;;;;;3.97;2.80;;;;;;;20.63;50.39;99609.94;3181514;27;20043;-77
2022/05/15 01:35:33;;;;;;;8.52;3.33;;;;;;;20.35;50.19;99541.94;3181487;27;20074;-77
2022/05/15 01:37:06;;;;;;;6.70;3.20;;;;;;;20.52;50.23;99583.63;3181823;28;20432;-77
2022/05/15 01:38:38;;;;;;;10.82;3.28;;;;;;;20.62;50.06;99595.06;3181398;28;20047;-76
2022/05/15 01:40:11;;;;;;;7.20;3.10;;;;;;;20.61;49.98;99587.25;3181263;27;20143;-76
2022/05/15 01:41:43;;;;;;;5.30;2.88;;;;;;;20.64;50.23;99600.19;3181226;28;20047;-77
2022/05/15 01:43:16;;;;;;;6.68;2.72;;;;;;;20.65;49.96;99594.78;3181376;28;20054;-78
2022/05/15 01:44:48;;;;;;;6.28;3.03;;;;;;;20.49;49.88;99572.44;3181377;27;20047;-78
2022/05/15 01:46:21;;;;;;;4.70;2.90;;;;;;;20.22;49.67;99513.13;3181361;28;20059;-78
2022/05/15 01:47:54;;;;;;;;;;;;;;;20.85;49.84;99637.09;3181369;27;20059;-78
2022/05/15 01:49:26;;;;;;;5.20;2.88;;;;;;;20.28;49.83;99539.03;3181662;27;20010;-77
2022/05/15 01:51:36;;;;;;;8.07;3.00;;;;;;;20.55;49.64;99583.34;3181022;27;20150;-79
2022/05/15 01:53:49;;;;;;;6.07;3.03;;;;;;;20.82;49.60;99646.19;3175798;28;20051;-79
2022/05/15 01:57:08;;;;;;;5.72;2.90;;;;;;;20.16;49.81;99546.25;3180049;27;20059;-77
2022/05/15 02:14:38;;;;;;;4.45;3.08;;;;;;;20.11;49.78;99561.66;3103059;28;20057;-77
2022/05/15 02:16:12;;;;;;;5.93;2.80;;;;;;;20.70;49.97;99651.72;3150772;27;20055;-75
2022/05/15 02:17:44;;;;;;;4.68;2.75;;;;;;;20.41;49.98;99599.59;3180977;27;20516;-77
2022/05/15 02:19:17;;;;;;;8.43;3.08;;;;;;;20.35;49.95;99589.53;3180982;27;20066;-75
2022/05/15 02:20:49;;;;;;;4.30;3.25;;;;;;;20.71;50.14;99654.25;3181363;28;20054;-75
2022/05/15 02:22:22;;;;;;;5.55;3.13;;;;;;;20.18;50.28;99576.03;3174104;28;20081;-77
2022/05/15 02:23:54;;;;;;;7.90;3.13;;;;;;;20.00;50.00;99545.94;3181061;28;20055;-76
2022/05/15 02:25:29;;;;;;;7.30;3.27;;;;;;;20.69;50.39;99656.19;3180938;28;20051;-74
2022/05/15 02:27:00;;;;;;;6.18;2.72;;;;;;;20.26;50.14;99595.66;3180692;28;20062;-74
2022/05/15 02:28:32;;;;;;;5.55;3.05;;;;;;;20.29;50.16;99600.66;3181040;28;20059;-74
2022/05/15 02:30:05;;;;;;;9.77;3.15;;;;;;;20.68;50.21;99663.28;3180620;28;20529;-74
2022/05/15 02:31:38;;;;;;;4.78;2.90;;;;;;;20.30;50.23;99613.78;3180807;28;20059;-74
2022/05/15 02:33:09;;;;;;;8.05;3.08;;;;;;;20.30;50.57;99612.94;3173601;28;20044;-74
2022/05/15 02:34:41;;;;;;;7.55;2.83;;;;;;;20.62;50.50;99666.50;3172135;28;20055;-74
2022/05/15 02:36:13;;;;;;;5.07;2.75;;;;;;;20.41;50.47;99639.28;3172472;28;20317;-74
2022/05/15 02:37:47;;;;;;;6.28;3.00;;;;;;;20.58;50.28;99665.06;3172267;28;20108;-74
2022/05/15 02:39:18;;;;;;;;;;;;;;;20.56;50.46;99664.38;3172477;28;20043;-75
2022/05/15 02:40:52;;;;;;;7.85;2.95;;;;;;;19.83;50.43;99563.28;3172501;28;20084;-74
2022/05/15 02:42:23;;;;;;;;;;;;;;;20.49;50.57;99668.50;3172327;28;20066;-72
2022/05/15 02:53:42;;;;;;;5.20;2.92;;;;;;;20.43;50.79;99671.69;3149432;28;20052;-76
2022/05/15 02:55:15;;;;;;;6.47;3.05;;;;;;;20.09;50.89;99619.16;3150243;28;20621;-76
2022/05/15 03:18:15;;;;;;;5.28;2.90;;;;;;;20.35;50.99;99682.09;3285524;23;20109;-77
2022/05/15 03:19:51;;;;;;;9.55;3.10;;;;;;;20.35;50.87;99690.03;3124440;28;20075;-77
2022/05/15 03:21:32;;;;;;;4.68;2.97;;;;;;;20.05;51.01;99651.25;3124014;28;20880;-78
2022/05/15 03:23:07;;;;;;;4.97;2.75;;;;;;;20.33;51.27;99692.84;3118781;28;20248;-76
2022/05/15 03:24:40;;;;;;;8.18;2.97;;;;;;;20.17;50.97;99666.91;3123591;28;20049;-77
2022/05/15 03:26:13;;;;;;;4.80;2.92;;;;;;;20.34;51.27;99696.31;3117642;28;20115;-76
2022/05/15 03:27:45;;;;;;;7.63;3.13;;;;;;;20.12;51.25;99663.81;3118322;28;20119;-76
2022/05/15 03:29:19;;;;;;;9.82;3.25;;;;;;;19.68;50.88;99591.03;3124403;28;20084;-76
2022/05/15 03:30:52;;;;;;;4.80;3.00;;;;;;;19.56;51.33;99582.34;3124697;28;20056;-78
2022/05/15 03:32:27;;;;;;;7.82;3.28;;;;;;;20.30;51.13;99703.69;3123609;28;20283;-76
2022/05/15 03:34:54;;;;;;;7.15;3.40;;;;;;;20.32;51.03;99700.88;3123406;28;20053;-78
2022/05/15 03:36:31;;;;;;;4.93;2.83;;;;;;;20.31;51.16;99707.16;3116399;28;20057;-78
2022/05/15 03:38:10;;;;;;;7.30;3.38;;;;;;;20.31;51.14;99710.63;3124612;28;20303;-77
2022/05/15 03:45:15;;;;;;;10.00;2.95;;;;;;;19.85;51.12;99634.50;3014541;29;20060;-76
2022/05/15 03:54:47;;;;;;;5.53;3.00;;;;;;;20.21;50.84;99684.16;2991075;29;20046;-78
2022/05/15 03:56:49;;;;;;;5.13;2.97;;;;;;;20.26;50.65;99683.78;3004422;29;20103;-75
2022/05/15 03:58:15;;;;;;;4.65;2.88;;;;;;;20.00;50.59;99647.22;3014149;29;20569;-77
2022/05/15 03:59:49;;;;;;;6.65;3.45;;;;;;;19.89;50.60;99620.88;3076854;28;20550;-78
2022/05/15 04:01:30;;;;;;;6.82;3.20;;;;;;;20.02;50.71;99638.31;3114905;28;20600;-78
2022/05/15 04:03:26;;;;;;;;;;;;;;;;;;;;;
2022/05/15 04:06:19;;;;;;;;;;;;;;;;;;;;;
2022/05/15 04:15:01;;;;;;;6.47;3.05;;;;;;;20.23;50.64;99684.88;2969155;29;20090;-82
2022/05/15 04:16:34;;;;;;;6.28;3.83;;;;;;;20.45;50.88;99710.25;3012728;29;20071;-76
2022/05/15 04:18:09;;;;;;;6.38;3.08;;;;;;;20.32;50.58;99692.94;3085394;28;20093;-76
2022/05/15 04:22:02;;;;;;;8.75;3.00;;;;;;;20.51;51.02;99716.00;3070987;28;20126;-77
2022/05/15 04:23:35;;;;;;;7.07;3.03;;;;;;;20.04;51.25;99645.13;3110005;28;20203;-76
2022/05/15 04:25:10;;;;;;;5.80;3.10;;;;;;;20.27;51.15;99676.69;3105930;28;20057;-77
2022/05/15 04:26:47;;;;;;;5.72;2.85;;;;;;;19.99;51.06;99631.47;3121560;28;20114;-75
2022/05/15 04:29:24;;;;;;;4.22;3.15;;;;;;;19.98;51.10;99627.16;3120206;28;20048;-82
2022/05/15 04:31:33;;;;;;;6.82;2.83;;;;;;;20.23;51.36;99669.00;3116530;28;20071;-78
2022/05/15 04:33:06;;;;;;;7.45;3.10;;;;;;;20.32;51.48;99687.66;3119256;28;20088;-76
2022/05/15 04:34:38;;;;;;;7.75;3.38;;;;;;;20.55;51.65;99725.34;3123304;28;20084;-75
2022/05/15 04:36:11;;;;;;;6.53;3.13;;;;;;;20.11;51.39;99654.19;3122547;28;20322;-74
2022/05/15 04:37:46;;;;;;;4.78;3.05;;;;;;;20.10;51.45;99649.06;3127003;28;20820;-78
2022/05/15 04:39:19;;;;;;;5.80;2.80;;;;;;;20.61;51.48;99730.94;3122810;28;20590;-73
2022/05/15 04:41:21;;;;;;;7.13;3.28;;;;;;;20.65;51.24;99732.38;3123555;28;20555;-82
2022/05/15 04:42:53;;;;;;;7.47;3.33;;;;;;;20.67;51.34;99729.56;3122728;28;20107;-71
2022/05/15 04:44:25;;;;;;;12.35;3.55;;;;;;;20.31;51.25;99664.84;3123010;28;20110;-74
2022/05/15 04:45:58;;;;;;;7.10;3.35;;;;;;;20.61;51.39;99715.06;3122861;28;20068;-73
2022/05/15 04:47:32;;;;;;;4.65;2.75;;;;;;;20.76;51.01;99735.84;3123516;28;20056;-71
2022/05/15 04:49:10;;;;;;;6.05;2.65;;;;;;;20.79;50.78;99730.28;3122772;28;20545;-72
2022/05/15 04:50:42;;;;;;;4.20;2.58;;;;;;;20.81;50.82;99733.66;3122989;28;20057;-74
2022/05/15 04:52:14;;;;;;;5.75;3.05;;;;;;;20.63;50.49;99701.72;3123508;28;20530;-74
2022/05/15 04:53:46;;;;;;;6.03;3.22;;;;;;;20.88;50.85;99734.75;3127729;28;20060;-71
2022/05/15 04:55:19;;;;;;;5.43;3.65;;;;;;;20.92;50.52;99735.34;3127883;28;20159;-70
2022/05/15 04:56:51;;;;;;;4.50;2.88;;;;;;;20.95;50.48;99737.72;3127796;28;20052;-72
2022/05/15 04:58:23;;;;;;;8.48;2.88;;;;;;;20.98;50.53;99730.34;3127918;28;20538;-69
2022/05/15 04:59:55;;;;;;;4.32;3.08;;;;;;;21.01;50.25;99735.34;3127714;28;20744;-71
2022/05/15 05:01:27;;;;;;;6.65;3.63;;;;;;;20.88;50.39;99703.84;3127766;28;20061;-69
2022/05/15 05:03:01;;;;;;;8.00;3.23;;;;;;;21.10;50.04;99737.16;3127799;28;20071;-73
2022/05/15 05:04:32;;;;;;;;;;;;;;;21.14;50.11;99741.19;3128190;28;20311;-73
2022/05/15 05:06:06;;;;;;;3.38;2.75;;;;;;;21.04;50.08;99716.53;3123753;28;20433;-73
2022/05/15 05:07:38;;;;;;;6.10;3.00;;;;;;;21.19;49.88;99739.97;3121448;28;20057;-75
2022/05/15 05:09:12;;;;;;;10.02;3.22;;;;;;;21.04;49.63;99715.72;3127813;28;20681;-73
2022/05/15 05:10:44;;;;;;;6.55;2.88;;;;;;;21.27;49.55;99737.47;3127155;28;20053;-73
2022/05/15 05:12:15;;;;;;;7.40;3.17;;;;;;;21.30;49.13;99745.13;3127119;28;20553;-73
2022/05/15 05:13:48;;;;;;;12.13;6.00;;;;;;;21.34;49.22;99743.88;3126999;28;20053;-72
2022/05/15 05:15:20;;;;;;;84.13;55.88;;;;;;;21.39;48.91;99743.50;3124524;28;20048;-70
2022/05/15 05:16:52;;;;;;;10.95;7.25;;;;;;;21.21;48.64;99714.16;3127279;28;20117;-74
2022/05/15 05:18:25;;;;;;;9.35;3.00;;;;;;;21.23;48.18;99712.22;3127317;28;20140;-76
2022/05/15 05:19:58;;;;;;;9.13;3.35;;;;;;;21.49;48.39;99745.13;3127294;28;20103;-71
2022/05/15 05:21:29;;;;;;;8.13;3.25;;;;;;;21.53;48.26;99741.25;3127433;28;20372;-71
2022/05/15 05:23:02;;;;;;;5.20;3.03;;;;;;;21.40;48.27;99716.84;3127615;28;20052;-80
2022/05/15 05:24:34;;;;;;;6.78;2.97;;;;;;;21.63;48.20;99745.69;3128067;28;20152;-69
2022/05/15 05:26:06;;;;;;;25.63;16.10;;;;;;;21.69;48.29;99743.31;3126853;28;20061;-70
2022/05/15 05:27:40;;;;;;;15.07;10.15;;;;;;;21.77;47.85;99742.63;3126882;28;20049;-72
2022/05/15 05:29:13;;;;;;;24.15;9.35;;;;;;;21.84;48.04;99741.06;3124266;28;20718;-71
2022/05/15 05:30:45;;;;;;;13.30;6.68;;;;;;;21.90;48.31;99747.59;3126986;28;20107;-70
2022/05/15 05:32:18;;;;;;;7.32;3.65;;;;;;;21.91;48.08;99744.78;3127367;28;20041;-73
2022/05/15 05:33:51;;;;;;;9.27;3.50;;;;;;;21.92;47.95;99733.22;3125421;28;20235;-72
2022/05/15 05:35:26;;;;;;;10.02;3.13;;;;;;;21.84;47.75;99696.00;3126631;28;20055;-71
2022/05/15 05:36:58;;;;;;;7.55;3.45;;;;;;;21.94;47.49;99723.28;3127728;28;20057;-75
2022/05/15 05:38:30;;;;;;;10.38;3.47;;;;;;;22.15;47.13;99740.81;3127737;28;20064;-75
2022/05/15 05:40:06;;;;;;;10.57;3.07;;;;;;;22.07;47.04;99727.47;3127558;28;20329;-76
2022/05/15 05:41:38;;;;;;;5.78;2.90;;;;;;;22.24;46.62;99742.63;3127564;28;20056;-74
2022/05/15 05:43:11;;;;;;;5.85;3.45;;;;;;;22.10;46.54;99722.69;3127528;28;20053;-73
2022/05/15 05:44:43;;;;;;;4.75;2.88;;;;;;;22.02;46.19;99704.84;3127792;28;20111;-73
2022/05/15 05:46:15;;;;;;;5.55;2.55;;;;;;;22.32;45.96;99748.03;3127564;28;20496;-73
2022/05/15 05:47:50;;;;;;;7.38;3.35;;;;;;;22.38;45.75;99746.63;3127543;28;20155;-75
2022/05/15 05:49:24;;;;;;;8.52;3.40;;;;;;;22.42;45.60;99745.34;3121408;28;20102;-74
2022/05/15 05:50:56;;;;;;;7.78;3.60;;;;;;;22.25;45.84;99715.97;3127887;28;20093;-74
2022/05/15 05:52:29;;;;;;;12.25;4.13;;;;;;;22.48;45.35;99748.25;3127949;28;20059;-76
2022/05/15 05:54:04;;;;;;;7.32;3.13;;;;;;;22.53;45.78;99739.00;3127435;28;20248;-79
2022/05/15 05:55:37;;;;;;;6.57;3.30;;;;;;;22.45;45.23;99735.28;3127354;28;20053;-75
2022/05/15 05:57:09;;;;;;;4.63;2.88;;;;;;;22.45;45.11;99734.44;3127901;28;20049;-75
2022/05/15 05:58:41;;;;;;;7.72;3.55;;;;;;;22.55;45.44;99739.72;3127225;28;20060;-77
2022/05/15 06:00:16;;;;;;;12.32;3.90;;;;;;;22.59;45.33;99739.25;3127699;28;20064;-76
2022/05/15 06:01:48;;;;;;;9.82;3.17;;;;;;;22.62;45.62;99740.78;3127477;28;20567;-74
2022/05/15 06:05:10;;;;;;;7.47;3.47;;;;;;;22.66;45.55;99723.59;3121793;28;20065;-77
2022/05/15 06:06:43;;;;;;;139.85;12.05;;;;;;;22.78;45.08;99738.31;3127154;28;20049;-74
2022/05/15 06:08:16;;;;;;;29.70;3.67;;;;;;;22.56;45.12;99694.44;3128793;28;20510;-74
2022/05/15 06:09:50;;;;;;;7.43;3.15;;;;;;;22.81;45.09;99727.41;3129760;28;20049;-75
2022/05/15 06:11:21;;;;;;;5.47;3.05;;;;;;;22.75;45.14;99700.63;3129009;28;20640;-73
2022/05/15 06:12:53;;;;;;;4.78;2.90;;;;;;;22.74;45.04;99683.00;3129990;28;20057;-74
2022/05/15 06:14:25;;;;;;;9.98;2.83;;;;;;;22.96;44.75;99717.13;3129553;28;20045;-72
2022/05/15 06:15:58;;;;;;;7.85;2.70;;;;;;;23.08;44.63;99726.53;3129817;28;20056;-75
2022/05/15 06:17:30;;;;;;;7.80;2.80;;;;;;;23.20;44.75;99737.78;3131845;28;20065;-75
2022/05/15 06:19:04;;;;;;;11.95;3.22;;;;;;;23.30;44.62;99732.38;3127581;28;20075;-76
2022/05/15 06:20:38;;;;;;;11.93;3.13;;;;;;;23.37;44.62;99738.78;3129246;28;20063;-78
2022/05/15 06:22:10;;;;;;;1503.50;107.43;;;;;;;23.47;44.14;99741.34;3129663;28;20052;-74
2022/05/15 06:23:45;;;;;;;279.27;19.88;;;;;;;23.60;44.58;99733.78;3128998;28;20049;-80
2022/05/15 06:25:17;;;;;;;1436.50;99.07;;;;;;;23.61;44.27;99717.69;3129521;28;20052;-77
2022/05/15 06:26:53;;;;;;;26.00;3.65;;;;;;;23.76;43.27;99712.66;3125973;28;20045;-78
2022/05/15 06:28:29;;;;;;;4.47;3.10;;;;;;;24.04;43.31;99726.63;3127604;28;20060;-76
2022/05/15 06:30:01;;;;;;;8.13;2.50;;;;;;;24.19;42.01;99726.03;3128864;28;20118;-75
2022/05/15 06:31:33;;;;;;;27.83;3.22;;;;;;;24.20;41.23;99709.09;3130915;28;20048;-74
2022/05/15 06:33:09;;;;;;;6.65;2.25;;;;;;;24.37;39.31;99718.78;3129253;28;20053;-77
2022/05/15 06:34:41;;;;;;;11.73;2.70;;;;;;;24.50;39.83;99729.88;3129408;28;20135;-73
2022/05/15 06:36:15;;;;;;;6.15;2.40;;;;;;;24.32;39.26;99691.03;3129173;28;20139;-73
2022/05/15 06:37:47;;;;;;;6.35;2.58;;;;;;;24.51;39.40;99701.41;3128889;28;20088;-75
2022/05/15 06:39:37;;;;;;;5.55;2.15;;;;;;;24.62;38.83;99695.81;3127842;28;20080;-74
2022/05/15 06:41:09;;;;;;;4.38;2.28;;;;;;;24.89;38.54;99726.66;3124547;28;20078;-75
2022/05/15 06:42:41;;;;;;;6.40;2.35;;;;;;;24.94;38.50;99723.50;3128653;28;20663;-74
2022/05/15 06:44:13;;;;;;;5.18;2.10;;;;;;;24.86;37.74;99710.19;3122661;28;20367;-73
2022/05/15 06:45:47;;;;;;;7.60;2.40;;;;;;;25.10;37.33;99742.19;3128930;28;20225;-75
2022/05/15 06:47:19;;;;;;;6.78;2.10;;;;;;;25.13;37.06;99727.69;3132307;28;20049;-75
2022/05/15 06:48:51;;;;;;;7.13;2.50;;;;;;;25.18;37.22;99730.75;3134164;28;20513;-72
2022/05/15 06:50:24;;;;;;;10.40;3.25;;;;;;;25.17;37.00;99731.72;3134120;28;20052;-73
2022/05/15 06:51:57;;;;;;;3.83;2.28;;;;;;;25.25;37.00;99725.56;3134210;28;20080;-74
2022/05/15 06:53:28;;;;;;;;;;;;;;;25.23;37.11;99732.91;3134829;28;20041;-72
2022/05/15 06:55:00;;;;;;;3.90;2.03;;;;;;;25.22;37.68;99733.91;3133967;28;20015;-72
2022/05/15 06:58:20;;;;;;;4.78;1.95;;;;;;;25.29;37.17;99726.91;3127687;28;20535;-77
2022/05/15 06:59:52;;;;;;;6.43;2.45;;;;;;;25.30;37.29;99721.41;3134173;28;20056;-73
2022/05/15 07:01:25;;;;;;;5.22;1.70;;;;;;;25.36;37.42;99725.25;3133457;28;20060;-74
2022/05/15 07:02:57;;;;;;;4.97;2.10;;;;;;;25.44;37.14;99730.59;3134178;28;20057;-74
2022/05/15 07:04:29;;;;;;;7.10;2.38;;;;;;;25.46;37.36;99735.75;3133738;28;20147;-72
2022/05/15 07:06:01;;;;;;;6.90;3.40;;;;;;;25.24;37.19;99686.59;3132805;28;20049;-73
2022/05/15 07:07:34;;;;;;;4.68;2.33;;;;;;;25.53;37.27;99718.91;3134095;28;20045;-75
2022/05/15 07:09:06;;;;;;;;;;;;;;;25.65;36.91;99733.56;3134382;28;20486;-75
2022/05/15 07:10:38;;;;;;;5.32;2.33;;;;;;;25.68;36.74;99739.56;3134149;28;19970;-72
2022/05/15 07:12:10;;;;;;;10.38;2.30;;;;;;;25.52;36.63;99711.91;3134106;28;20053;-72
2022/05/15 07:13:42;;;;;;;5.80;2.22;;;;;;;25.64;36.45;99737.25;3133722;28;20052;-73
2022/05/15 07:15:14;;;;;;;4.25;1.95;;;;;;;25.61;36.96;99731.41;3134012;28;20110;-72
2022/05/15 07:16:46;;;;;;;5.75;2.40;;;;;;;25.68;36.90;99739.56;3133897;28;20106;-72
2022/05/15 07:18:18;;;;;;;4.78;2.13;;;;;;;25.71;36.31;99734.72;3133902;28;20423;-75
2022/05/15 07:19:50;;;;;;;8.35;2.55;;;;;;;25.76;36.03;99734.22;3133357;28;20053;-76
2022/05/15 07:21:21;;;;;;;6.68;1.80;;;;;;;25.75;35.60;99728.03;3134136;28;20052;-75
2022/05/15 07:22:55;;;;;;;5.18;1.98;;;;;;;25.62;36.01;99698.41;3133960;28;20110;-75
2022/05/15 07:24:27;;;;;;;;;;;;;;;25.88;35.91;99738.22;3134151;28;20041;-72
2022/05/15 07:25:59;;;;;;;2.97;1.55;;;;;;;25.95;35.63;99738.41;3133545;28;19944;-73
2022/05/15 07:27:32;;;;;;;5.22;1.92;;;;;;;26.05;34.95;99737.19;3130240;28;20110;-70
2022/05/15 07:29:04;;;;;;;3.28;1.60;;;;;;;26.01;34.65;99711.03;3134091;28;20411;-70
2022/05/15 07:30:36;;;;;;;6.65;1.95;;;;;;;26.18;33.97;99736.66;3133091;28;20415;-72
2022/05/15 07:32:10;;;;;;;22.50;13.95;;;;;;;26.24;34.30;99721.81;3132811;28;20052;-70
2022/05/15 07:33:42;;;;;;;17.17;4.90;;;;;;;26.27;33.61;99730.28;3132854;28;20182;-76
2022/05/15 07:35:14;;;;;;;10.57;2.67;;;;;;;26.30;33.65;99727.28;3133827;28;20049;-66
2022/05/15 07:36:50;;;;;;;11.15;2.25;;;;;;;26.27;33.65;99716.94;3134132;28;20049;-69
2022/05/15 07:38:24;;;;;;;7.45;1.80;;;;;;;26.32;33.36;99725.28;3134106;28;20099;-73
2022/05/15 07:39:56;;;;;;;9.65;2.25;;;;;;;26.41;33.00;99727.91;3133931;28;20493;-69
2022/05/15 07:41:28;;;;;;;5.30;1.88;;;;;;;26.45;32.89;99724.72;3134057;28;20800;-68
2022/05/15 07:43:00;;;;;;;6.65;2.00;;;;;;;26.40;32.96;99721.72;3133762;28;20064;-70
2022/05/15 07:44:32;;;;;;;2.97;1.30;;;;;;;26.50;32.77;99725.06;3133791;28;20049;-67
2022/05/15 07:46:04;;;;;;;6.05;1.60;;;;;;;26.53;32.69;99724.72;3133864;28;20103;-68
2022/05/15 07:47:36;;;;;;;2.45;1.65;;;;;;;26.61;32.84;99733.69;3134204;28;20053;-69
2022/05/15 07:49:08;;;;;;;2.85;1.60;;;;;;;26.64;32.72;99725.31;3133734;28;20049;-69
2022/05/15 07:50:40;;;;;;;8.00;2.10;;;;;;;26.65;32.74;99727.84;3133823;28;20052;-72
2022/05/15 07:52:11;;;;;;;5.13;1.90;;;;;;;26.73;32.36;99721.59;3134015;28;20053;-68
2022/05/15 07:53:45;;;;;;;7.78;2.00;;;;;;;26.82;32.39;99719.72;3133960;28;20060;-68
2022/05/15 07:55:16;;;;;;;;;;;;;;;26.90;31.88;99723.16;3134440;28;20057;-70
2022/05/15 07:56:48;;;;;;;6.95;1.63;;;;;;;26.97;32.13;99721.44;3133385;28;20011;-72
2022/05/15 07:58:20;;;;;;;5.47;1.55;;;;;;;27.07;32.37;99725.75;3133699;28;20088;-69
2022/05/15 07:59:52;;;;;;;5.95;1.70;;;;;;;27.13;32.30;99725.84;3129543;28;20497;-71
2022/05/15 08:01:24;;;;;;;5.95;1.55;;;;;;;27.20;31.71;99715.31;3133318;28;20049;-71
2022/05/15 08:03:04;;;;;;;2.92;1.90;;;;;;;27.33;31.16;99728.91;3133529;28;20049;-68
2022/05/15 08:08:00;;;;;;;4.93;1.90;;;;;;;27.41;31.33;99736.84;3133728;28;20041;-69
2022/05/15 08:08:18;;;;;;;6.93;2.38;;;;;;;27.56;31.02;99723.53;3133648;28;20052;-67
2022/05/15 08:09:51;;;;;;;7.45;1.95;;;;;;;27.64;30.93;99736.00;3132799;28;20151;-73
2022/05/15 08:11:26;;;;;;;;;;;;;;;27.71;31.03;99731.56;3133923;28;20415;-71
2022/05/15 08:12:58;;;;;;;18.50;4.72;;;;;;;27.81;31.32;99731.38;3133793;28;19924;-68
2022/05/15 08:14:30;;;;;;;5.97;1.80;;;;;;;27.72;30.83;99698.47;3133328;28;20438;-73
2022/05/15 08:16:02;;;;;;;6.13;1.63;;;;;;;27.97;30.55;99733.03;3132070;28;20135;-71
2022/05/15 08:17:34;;;;;;;6.45;2.15;;;;;;;28.04;30.54;99736.63;3133489;28;20064;-73
2022/05/15 08:24:37;;;;;;;10.95;2.17;;;;;;;28.30;30.01;99728.97;3129684;28;20566;-69
2022/05/15 08:26:11;;;;;;;3.70;1.60;;;;;;;28.29;30.32;99713.91;3130075;28;20068;-72
2022/05/15 08:27:43;;;;;;;5.15;1.75;;;;;;;28.24;30.22;99696.75;3132588;28;20588;-67
2022/05/15 08:29:15;;;;;;;6.93;2.30;;;;;;;28.55;30.13;99723.34;3131737;28;20046;-71
2022/05/15 08:30:47;;;;;;;4.15;1.70;;;;;;;28.71;29.97;99735.69;3132236;28;20576;-69
2022/05/15 08:32:19;;;;;;;3.63;1.60;;;;;;;28.79;29.50;99719.50;3122428;28;20211;-70
2022/05/15 08:33:52;;;;;;;4.13;1.65;;;;;;;28.89;29.37;99729.91;3128771;28;20652;-70
2022/05/15 08:35:24;;;;;;;;;;;;;;;28.98;29.17;99734.94;3130351;28;20045;-73
2022/05/15 08:36:55;;;;;;;8.30;2.13;;;;;;;29.08;29.29;99731.19;3131100;28;19924;-70
2022/05/15 08:38:27;;;;;;;3.28;1.77;;;;;;;29.17;28.74;99733.53;3128410;28;20407;-71
2022/05/15 08:39:59;;;;;;;2.67;1.40;;;;;;;29.29;28.90;99733.03;3128073;28;20057;-73
2022/05/15 08:41:45;;;;;;;9.88;1.67;;;;;;;29.33;28.01;99739.66;3133214;28;20596;-71
2022/05/15 08:43:20;;;;;;;4.93;1.65;;;;;;;29.29;27.64;99720.44;3133138;28;20118;-69
2022/05/15 08:44:59;;;;;;;14.95;1.67;;;;;;;29.40;27.56;99730.66;3132681;28;20053;-77
2022/05/15 08:46:39;;;;;;;5.53;1.20;;;;;;;29.45;27.46;99738.09;3133298;28;20079;-70
2022/05/15 08:48:13;;;;;;;4.00;1.35;;;;;;;29.47;26.47;99728.84;3133325;28;20095;-68
2022/05/15 08:49:50;;;;;;;4.18;1.75;;;;;;;29.50;26.77;99724.94;3133091;28;20048;-72
2022/05/15 08:51:22;;;;;;;6.25;1.65;;;;;;;29.68;26.96;99737.91;3129741;28;20135;-74
2022/05/15 08:52:56;;;;;;;5.65;1.60;;;;;;;29.77;27.01;99728.69;3132533;28;20049;-73
2022/05/15 08:54:30;;;;;;;3.80;1.55;;;;;;;29.88;27.33;99730.03;3131968;28;20090;-72
2022/05/15 08:56:16;;;;;;;7.47;1.67;;;;;;;29.94;26.80;99729.22;3131377;28;20574;-73
2022/05/15 08:57:53;;;;;;;10.90;1.63;;;;;;;29.91;26.21;99735.81;3132843;28;20083;-73
2022/05/15 08:59:29;;;;;;;3.17;1.50;;;;;;;29.88;26.00;99730.84;3124736;28;20473;-72
2022/05/15 09:01:01;;;;;;;6.13;1.45;;;;;;;29.88;25.31;99730.84;3127079;28;20575;-73
2022/05/15 09:02:33;;;;;;;5.43;1.65;;;;;;;29.70;26.00;99717.91;3133179;28;20049;-73
2022/05/15 09:04:05;;;;;;;4.70;1.83;;;;;;;29.70;26.39;99723.28;3132592;28;20048;-73
2022/05/15 09:05:37;;;;;;;4.85;1.58;;;;;;;29.78;26.75;99734.88;3133267;28;20053;-75
2022/05/15 09:07:20;;;;;;;8.77;1.90;;;;;;;29.85;26.49;99722.34;3133116;28;20052;-73
2022/05/15 09:09:01;;;;;;;4.50;1.90;;;;;;;29.98;26.68;99733.16;3133194;28;20055;-70
2022/05/15 09:10:38;;;;;;;4.68;1.60;;;;;;;30.07;26.25;99717.72;3132613;28;20048;-76
2022/05/15 09:12:17;;;;;;;4.45;1.90;;;;;;;30.13;26.12;99708.88;3132215;28;20514;-76
2022/05/15 09:13:58;;;;;;;6.32;1.70;;;;;;;30.29;26.21;99713.97;3132286;28;20142;-73
2022/05/15 09:15:31;;;;;;;3.40;1.60;;;;;;;30.31;26.27;99698.44;3132619;28;20045;-73